sensor_id;sensor_type;location;lat;lon;timestamp;temperature;humidity
56044;DHT22;41912;51.022;3.664;2022-08-14T00:01:09;23.40;61.90
56044;DHT22;41912;51.022;3.664;2022-08-14T00:03:36;23.40;62.10
56044;DHT22;41912;51.022;3.664;2022-08-14T00:06:03;23.30;62.20
56044;DHT22;41912;51.022;3.664;2022-08-14T00:08:29;23.30;62.10
56044;DHT22;41912;51.022;3.664;2022-08-14T00:10:55;23.20;62.60
56044;DHT22;41912;51.022;3.664;2022-08-14T00:13:22;23.20;62.30
56044;DHT22;41912;51.022;3.664;2022-08-14T00:15:50;23.20;62.60
56044;DHT22;41912;51.022;3.664;2022-08-14T00:18:22;23.20;63.20
56044;DHT22;41912;51.022;3.664;2022-08-14T00:20:49;23.20;63.90
56044;DHT22;41912;51.022;3.664;2022-08-14T00:23:16;23.20;64.70
56044;DHT22;41912;51.022;3.664;2022-08-14T00:25:45;23.20;64.20
56044;DHT22;41912;51.022;3.664;2022-08-14T00:28:12;23.20;62.80
56044;DHT22;41912;51.022;3.664;2022-08-14T00:30:39;23.30;59.50
56044;DHT22;41912;51.022;3.664;2022-08-14T00:33:05;23.30;58.60
56044;DHT22;41912;51.022;3.664;2022-08-14T00:35:31;23.40;57.90
56044;DHT22;41912;51.022;3.664;2022-08-14T00:37:57;23.40;57.20
56044;DHT22;41912;51.022;3.664;2022-08-14T00:40:23;23.50;56.20
56044;DHT22;41912;51.022;3.664;2022-08-14T00:42:49;23.50;56.50
56044;DHT22;41912;51.022;3.664;2022-08-14T00:45:16;23.60;56.20
56044;DHT22;41912;51.022;3.664;2022-08-14T00:47:44;23.60;57.70
56044;DHT22;41912;51.022;3.664;2022-08-14T00:50:14;23.60;59.30
56044;DHT22;41912;51.022;3.664;2022-08-14T00:52:43;23.50;60.00
56044;DHT22;41912;51.022;3.664;2022-08-14T00:55:10;23.50;60.40
56044;DHT22;41912;51.022;3.664;2022-08-14T00:57:37;23.40;61.50
56044;DHT22;41912;51.022;3.664;2022-08-14T01:00:10;23.40;61.80
56044;DHT22;41912;51.022;3.664;2022-08-14T01:02:37;23.30;60.70
56044;DHT22;41912;51.022;3.664;2022-08-14T01:05:05;23.20;62.60
56044;DHT22;41912;51.022;3.664;2022-08-14T01:07:32;23.20;62.70
56044;DHT22;41912;51.022;3.664;2022-08-14T01:10:01;23.10;63.40
56044;DHT22;41912;51.022;3.664;2022-08-14T01:12:29;23.00;63.50
56044;DHT22;41912;51.022;3.664;2022-08-14T01:14:58;23.00;62.30
56044;DHT22;41912;51.022;3.664;2022-08-14T01:17:26;23.00;62.40
56044;DHT22;41912;51.022;3.664;2022-08-14T01:20:12;23.00;61.70
56044;DHT22;41912;51.022;3.664;2022-08-14T01:23:14;23.00;61.50
56044;DHT22;41912;51.022;3.664;2022-08-14T01:25:40;23.00;61.40
56044;DHT22;41912;51.022;3.664;2022-08-14T01:28:06;23.00;59.90
56044;DHT22;41912;51.022;3.664;2022-08-14T01:30:33;23.10;60.00
56044;DHT22;41912;51.022;3.664;2022-08-14T01:33:03;23.10;61.40
56044;DHT22;41912;51.022;3.664;2022-08-14T01:35:29;23.10;62.00
56044;DHT22;41912;51.022;3.664;2022-08-14T01:37:54;23.00;62.10
56044;DHT22;41912;51.022;3.664;2022-08-14T01:40:22;23.00;59.80
56044;DHT22;41912;51.022;3.664;2022-08-14T01:42:48;23.00;60.50
56044;DHT22;41912;51.022;3.664;2022-08-14T01:45:13;23.10;59.80
56044;DHT22;41912;51.022;3.664;2022-08-14T01:47:39;23.10;58.90
56044;DHT22;41912;51.022;3.664;2022-08-14T01:50:06;23.10;58.40
56044;DHT22;41912;51.022;3.664;2022-08-14T01:52:34;23.10;58.90
56044;DHT22;41912;51.022;3.664;2022-08-14T01:55:03;23.10;59.10
56044;DHT22;41912;51.022;3.664;2022-08-14T01:57:31;23.10;58.40
56044;DHT22;41912;51.022;3.664;2022-08-14T01:59:57;23.10;59.30
56044;DHT22;41912;51.022;3.664;2022-08-14T02:02:23;23.10;59.70
56044;DHT22;41912;51.022;3.664;2022-08-14T02:04:49;23.10;60.60
56044;DHT22;41912;51.022;3.664;2022-08-14T02:07:14;23.00;61.60
56044;DHT22;41912;51.022;3.664;2022-08-14T02:09:42;22.90;62.40
56044;DHT22;41912;51.022;3.664;2022-08-14T02:12:07;22.80;62.90
56044;DHT22;41912;51.022;3.664;2022-08-14T02:14:34;22.70;63.50
56044;DHT22;41912;51.022;3.664;2022-08-14T02:17:01;22.60;63.40
56044;DHT22;41912;51.022;3.664;2022-08-14T02:19:29;22.60;63.70
56044;DHT22;41912;51.022;3.664;2022-08-14T02:21:57;22.60;63.80
56044;DHT22;41912;51.022;3.664;2022-08-14T02:24:26;22.50;63.70
56044;DHT22;41912;51.022;3.664;2022-08-14T02:26:54;22.40;64.00
56044;DHT22;41912;51.022;3.664;2022-08-14T02:29:23;22.40;65.00
56044;DHT22;41912;51.022;3.664;2022-08-14T02:31:53;22.30;64.80
56044;DHT22;41912;51.022;3.664;2022-08-14T02:34:23;22.20;65.90
56044;DHT22;41912;51.022;3.664;2022-08-14T02:36:56;22.10;65.80
56044;DHT22;41912;51.022;3.664;2022-08-14T02:39:27;22.10;66.10
56044;DHT22;41912;51.022;3.664;2022-08-14T02:41:53;22.00;65.50
56044;DHT22;41912;51.022;3.664;2022-08-14T02:44:19;22.00;65.80
56044;DHT22;41912;51.022;3.664;2022-08-14T02:46:48;21.90;66.20
56044;DHT22;41912;51.022;3.664;2022-08-14T02:49:14;21.90;66.40
56044;DHT22;41912;51.022;3.664;2022-08-14T02:51:45;21.90;66.80
56044;DHT22;41912;51.022;3.664;2022-08-14T02:54:11;21.80;67.50
56044;DHT22;41912;51.022;3.664;2022-08-14T02:56:38;21.70;67.20
56044;DHT22;41912;51.022;3.664;2022-08-14T02:59:05;21.70;67.90
56044;DHT22;41912;51.022;3.664;2022-08-14T03:01:33;21.70;67.90
56044;DHT22;41912;51.022;3.664;2022-08-14T03:03:59;21.60;67.00
56044;DHT22;41912;51.022;3.664;2022-08-14T03:06:25;21.60;67.90
56044;DHT22;41912;51.022;3.664;2022-08-14T03:08:54;21.60;68.40
56044;DHT22;41912;51.022;3.664;2022-08-14T03:11:20;21.60;68.80
56044;DHT22;41912;51.022;3.664;2022-08-14T03:13:49;21.50;68.90
56044;DHT22;41912;51.022;3.664;2022-08-14T03:16:19;21.40;69.10
56044;DHT22;41912;51.022;3.664;2022-08-14T03:18:46;21.40;69.00
56044;DHT22;41912;51.022;3.664;2022-08-14T03:21:15;21.30;69.10
56044;DHT22;41912;51.022;3.664;2022-08-14T03:23:44;21.30;69.50
56044;DHT22;41912;51.022;3.664;2022-08-14T03:26:13;21.30;70.00
56044;DHT22;41912;51.022;3.664;2022-08-14T03:28:42;21.20;70.00
56044;DHT22;41912;51.022;3.664;2022-08-14T03:31:09;21.10;69.70
56044;DHT22;41912;51.022;3.664;2022-08-14T03:33:36;21.10;69.30
56044;DHT22;41912;51.022;3.664;2022-08-14T03:36:06;21.10;68.90
56044;DHT22;41912;51.022;3.664;2022-08-14T03:38:39;21.00;69.70
56044;DHT22;41912;51.022;3.664;2022-08-14T03:41:26;21.00;68.90
56044;DHT22;41912;51.022;3.664;2022-08-14T03:43:54;21.00;69.70
56044;DHT22;41912;51.022;3.664;2022-08-14T03:46:21;20.90;70.70
56044;DHT22;41912;51.022;3.664;2022-08-14T03:48:47;20.80;71.20
56044;DHT22;41912;51.022;3.664;2022-08-14T03:51:13;20.80;71.50
56044;DHT22;41912;51.022;3.664;2022-08-14T03:53:43;20.80;71.20
56044;DHT22;41912;51.022;3.664;2022-08-14T03:56:11;20.80;71.20
56044;DHT22;41912;51.022;3.664;2022-08-14T03:58:41;20.80;71.20
56044;DHT22;41912;51.022;3.664;2022-08-14T04:01:07;20.70;71.20
56044;DHT22;41912;51.022;3.664;2022-08-14T04:03:34;20.60;71.80
56044;DHT22;41912;51.022;3.664;2022-08-14T04:06:00;20.60;72.60
56044;DHT22;41912;51.022;3.664;2022-08-14T04:08:26;20.60;72.40
56044;DHT22;41912;51.022;3.664;2022-08-14T04:10:52;20.50;72.10
56044;DHT22;41912;51.022;3.664;2022-08-14T04:13:19;20.50;71.90
56044;DHT22;41912;51.022;3.664;2022-08-14T04:15:45;20.50;72.20
56044;DHT22;41912;51.022;3.664;2022-08-14T04:18:11;20.40;72.50
56044;DHT22;41912;51.022;3.664;2022-08-14T04:20:38;20.40;73.70
56044;DHT22;41912;51.022;3.664;2022-08-14T04:23:05;20.40;73.30
56044;DHT22;41912;51.022;3.664;2022-08-14T04:25:32;20.40;73.20
56044;DHT22;41912;51.022;3.664;2022-08-14T04:27:59;20.30;73.60
56044;DHT22;41912;51.022;3.664;2022-08-14T04:30:25;20.30;74.00
56044;DHT22;41912;51.022;3.664;2022-08-14T04:32:55;20.20;73.80
56044;DHT22;41912;51.022;3.664;2022-08-14T04:35:21;20.20;73.60
56044;DHT22;41912;51.022;3.664;2022-08-14T04:37:47;20.10;73.80
56044;DHT22;41912;51.022;3.664;2022-08-14T04:40:32;20.10;74.20
56044;DHT22;41912;51.022;3.664;2022-08-14T04:43:16;20.10;74.80
56044;DHT22;41912;51.022;3.664;2022-08-14T04:46:02;20.00;75.30
56044;DHT22;41912;51.022;3.664;2022-08-14T04:48:28;20.00;76.00
56044;DHT22;41912;51.022;3.664;2022-08-14T04:50:54;20.00;76.40
56044;DHT22;41912;51.022;3.664;2022-08-14T04:53:26;20.00;76.80
56044;DHT22;41912;51.022;3.664;2022-08-14T04:55:52;20.00;76.80
56044;DHT22;41912;51.022;3.664;2022-08-14T04:58:20;20.00;77.10
56044;DHT22;41912;51.022;3.664;2022-08-14T05:00:47;20.00;77.10
56044;DHT22;41912;51.022;3.664;2022-08-14T05:03:17;19.90;77.40
56044;DHT22;41912;51.022;3.664;2022-08-14T05:05:50;19.90;77.70
56044;DHT22;41912;51.022;3.664;2022-08-14T05:08:17;19.90;77.50
56044;DHT22;41912;51.022;3.664;2022-08-14T05:10:46;19.90;76.90
56044;DHT22;41912;51.022;3.664;2022-08-14T05:13:13;19.90;77.20
56044;DHT22;41912;51.022;3.664;2022-08-14T05:15:40;19.90;77.40
56044;DHT22;41912;51.022;3.664;2022-08-14T05:18:11;19.90;77.70
56044;DHT22;41912;51.022;3.664;2022-08-14T05:20:46;19.90;78.10
56044;DHT22;41912;51.022;3.664;2022-08-14T05:23:17;19.90;78.70
56044;DHT22;41912;51.022;3.664;2022-08-14T05:25:44;19.90;79.20
56044;DHT22;41912;51.022;3.664;2022-08-14T05:28:20;19.90;78.90
56044;DHT22;41912;51.022;3.664;2022-08-14T05:30:48;19.90;79.20
56044;DHT22;41912;51.022;3.664;2022-08-14T05:33:16;20.00;79.30
56044;DHT22;41912;51.022;3.664;2022-08-14T05:35:46;20.00;79.60
56044;DHT22;41912;51.022;3.664;2022-08-14T05:38:14;20.00;79.10
56044;DHT22;41912;51.022;3.664;2022-08-14T05:40:41;20.00;80.20
56044;DHT22;41912;51.022;3.664;2022-08-14T05:43:08;20.10;79.80
56044;DHT22;41912;51.022;3.664;2022-08-14T05:45:33;20.10;79.90
56044;DHT22;41912;51.022;3.664;2022-08-14T05:48:00;20.10;79.90
56044;DHT22;41912;51.022;3.664;2022-08-14T05:50:26;20.10;80.10
56044;DHT22;41912;51.022;3.664;2022-08-14T05:52:52;20.10;80.00
56044;DHT22;41912;51.022;3.664;2022-08-14T05:55:20;20.20;80.10
56044;DHT22;41912;51.022;3.664;2022-08-14T06:00:16;20.30;79.40
56044;DHT22;41912;51.022;3.664;2022-08-14T06:02:42;20.40;78.70
56044;DHT22;41912;51.022;3.664;2022-08-14T06:05:08;20.40;78.40
56044;DHT22;41912;51.022;3.664;2022-08-14T06:07:37;20.40;78.30
56044;DHT22;41912;51.022;3.664;2022-08-14T06:10:05;20.40;78.40
56044;DHT22;41912;51.022;3.664;2022-08-14T06:12:31;20.40;78.50
56044;DHT22;41912;51.022;3.664;2022-08-14T06:14:57;20.50;79.20
56044;DHT22;41912;51.022;3.664;2022-08-14T06:17:24;20.60;79.10
56044;DHT22;41912;51.022;3.664;2022-08-14T06:19:49;20.70;78.50
56044;DHT22;41912;51.022;3.664;2022-08-14T06:22:15;20.70;78.00
56044;DHT22;41912;51.022;3.664;2022-08-14T06:24:41;20.80;78.20
56044;DHT22;41912;51.022;3.664;2022-08-14T06:27:06;20.90;78.20
56044;DHT22;41912;51.022;3.664;2022-08-14T06:29:33;21.00;78.40
56044;DHT22;41912;51.022;3.664;2022-08-14T06:31:59;21.10;78.30
56044;DHT22;41912;51.022;3.664;2022-08-14T06:34:24;21.10;77.70
56044;DHT22;41912;51.022;3.664;2022-08-14T06:36:50;21.20;77.40
56044;DHT22;41912;51.022;3.664;2022-08-14T06:39:16;21.40;75.90
56044;DHT22;41912;51.022;3.664;2022-08-14T06:41:41;21.50;71.30
56044;DHT22;41912;51.022;3.664;2022-08-14T06:44:08;21.60;69.70
56044;DHT22;41912;51.022;3.664;2022-08-14T06:46:34;21.70;69.00
56044;DHT22;41912;51.022;3.664;2022-08-14T06:48:59;21.80;68.00
56044;DHT22;41912;51.022;3.664;2022-08-14T06:51:25;21.90;67.40
56044;DHT22;41912;51.022;3.664;2022-08-14T06:53:51;22.00;66.50
56044;DHT22;41912;51.022;3.664;2022-08-14T06:56:16;22.10;66.30
56044;DHT22;41912;51.022;3.664;2022-08-14T06:58:42;22.20;66.10
56044;DHT22;41912;51.022;3.664;2022-08-14T07:01:07;22.30;65.90
56044;DHT22;41912;51.022;3.664;2022-08-14T07:03:52;22.30;65.40
56044;DHT22;41912;51.022;3.664;2022-08-14T07:06:36;22.40;64.70
56044;DHT22;41912;51.022;3.664;2022-08-14T07:09:02;22.50;64.20
56044;DHT22;41912;51.022;3.664;2022-08-14T07:11:29;22.60;63.40
56044;DHT22;41912;51.022;3.664;2022-08-14T07:13:55;22.60;63.10
56044;DHT22;41912;51.022;3.664;2022-08-14T07:16:20;22.70;62.90
56044;DHT22;41912;51.022;3.664;2022-08-14T07:18:47;22.80;62.30
56044;DHT22;41912;51.022;3.664;2022-08-14T07:21:12;22.90;62.30
56044;DHT22;41912;51.022;3.664;2022-08-14T07:23:40;23.00;61.90
56044;DHT22;41912;51.022;3.664;2022-08-14T07:26:06;23.10;61.80
56044;DHT22;41912;51.022;3.664;2022-08-14T07:28:37;23.20;61.70
56044;DHT22;41912;51.022;3.664;2022-08-14T07:31:05;23.30;62.20
56044;DHT22;41912;51.022;3.664;2022-08-14T07:33:51;23.30;60.00
56044;DHT22;41912;51.022;3.664;2022-08-14T07:36:18;23.40;59.90
56044;DHT22;41912;51.022;3.664;2022-08-14T07:38:44;23.50;60.00
56044;DHT22;41912;51.022;3.664;2022-08-14T07:41:11;23.50;59.90
56044;DHT22;41912;51.022;3.664;2022-08-14T07:43:38;23.60;59.60
56044;DHT22;41912;51.022;3.664;2022-08-14T07:46:04;23.70;59.30
56044;DHT22;41912;51.022;3.664;2022-08-14T07:48:30;23.80;59.30
56044;DHT22;41912;51.022;3.664;2022-08-14T07:50:55;23.70;59.50
56044;DHT22;41912;51.022;3.664;2022-08-14T07:53:21;23.90;58.80
56044;DHT22;41912;51.022;3.664;2022-08-14T07:55:48;24.00;58.90
56044;DHT22;41912;51.022;3.664;2022-08-14T07:58:14;24.00;58.30
56044;DHT22;41912;51.022;3.664;2022-08-14T08:00:42;24.00;57.90
56044;DHT22;41912;51.022;3.664;2022-08-14T08:03:09;24.10;57.90
56044;DHT22;41912;51.022;3.664;2022-08-14T08:05:38;24.20;58.10
56044;DHT22;41912;51.022;3.664;2022-08-14T08:08:06;24.20;58.40
56044;DHT22;41912;51.022;3.664;2022-08-14T08:10:32;24.40;58.00
56044;DHT22;41912;51.022;3.664;2022-08-14T08:13:14;24.50;58.10
56044;DHT22;41912;51.022;3.664;2022-08-14T08:15:42;24.60;57.70
56044;DHT22;41912;51.022;3.664;2022-08-14T08:18:10;24.70;57.90
56044;DHT22;41912;51.022;3.664;2022-08-14T08:20:41;24.70;56.80
56044;DHT22;41912;51.022;3.664;2022-08-14T08:23:08;24.80;56.90
56044;DHT22;41912;51.022;3.664;2022-08-14T08:25:36;24.80;58.60
56044;DHT22;41912;51.022;3.664;2022-08-14T08:28:11;24.90;57.30
56044;DHT22;41912;51.022;3.664;2022-08-14T08:30:39;24.90;57.70
56044;DHT22;41912;51.022;3.664;2022-08-14T08:33:06;24.90;56.70
56044;DHT22;41912;51.022;3.664;2022-08-14T08:35:34;25.00;56.40
56044;DHT22;41912;51.022;3.664;2022-08-14T08:38:08;25.10;57.20
56044;DHT22;41912;51.022;3.664;2022-08-14T08:40:42;25.20;57.20
56044;DHT22;41912;51.022;3.664;2022-08-14T08:43:16;25.20;57.10
56044;DHT22;41912;51.022;3.664;2022-08-14T08:45:43;25.30;57.30
56044;DHT22;41912;51.022;3.664;2022-08-14T08:48:08;25.30;56.40
56044;DHT22;41912;51.022;3.664;2022-08-14T08:50:36;25.40;57.30
56044;DHT22;41912;51.022;3.664;2022-08-14T08:53:07;25.50;55.80
56044;DHT22;41912;51.022;3.664;2022-08-14T08:55:41;25.50;55.80
56044;DHT22;41912;51.022;3.664;2022-08-14T08:58:17;25.60;56.20
56044;DHT22;41912;51.022;3.664;2022-08-14T09:00:48;25.70;57.30
56044;DHT22;41912;51.022;3.664;2022-08-14T09:03:17;25.70;56.20
56044;DHT22;41912;51.022;3.664;2022-08-14T09:05:53;25.80;54.50
56044;DHT22;41912;51.022;3.664;2022-08-14T09:08:27;25.80;52.40
56044;DHT22;41912;51.022;3.664;2022-08-14T09:10:54;25.90;53.10
56044;DHT22;41912;51.022;3.664;2022-08-14T09:13:21;26.00;53.70
56044;DHT22;41912;51.022;3.664;2022-08-14T09:15:48;26.00;54.30
56044;DHT22;41912;51.022;3.664;2022-08-14T09:18:16;26.20;54.10
56044;DHT22;41912;51.022;3.664;2022-08-14T09:20:46;26.30;53.80
56044;DHT22;41912;51.022;3.664;2022-08-14T09:23:13;26.50;53.20
56044;DHT22;41912;51.022;3.664;2022-08-14T09:25:40;26.70;52.20
56044;DHT22;41912;51.022;3.664;2022-08-14T09:28:07;26.80;50.60
56044;DHT22;41912;51.022;3.664;2022-08-14T09:30:38;26.80;50.90
56044;DHT22;41912;51.022;3.664;2022-08-14T09:39:10;27.10;51.10
56044;DHT22;41912;51.022;3.664;2022-08-14T09:41:57;27.20;51.40
56044;DHT22;41912;51.022;3.664;2022-08-14T09:47:11;27.30;51.50
56044;DHT22;41912;51.022;3.664;2022-08-14T09:49:38;27.40;51.50
56044;DHT22;41912;51.022;3.664;2022-08-14T09:52:15;27.60;51.60
56044;DHT22;41912;51.022;3.664;2022-08-14T09:54:46;27.80;51.50
56044;DHT22;41912;51.022;3.664;2022-08-14T09:57:24;27.80;51.10
56044;DHT22;41912;51.022;3.664;2022-08-14T09:59:51;28.00;52.00
56044;DHT22;41912;51.022;3.664;2022-08-14T10:02:27;28.10;50.20
56044;DHT22;41912;51.022;3.664;2022-08-14T10:05:08;28.20;49.80
56044;DHT22;41912;51.022;3.664;2022-08-14T10:07:36;28.40;49.10
56044;DHT22;41912;51.022;3.664;2022-08-14T10:10:34;28.50;49.00
56044;DHT22;41912;51.022;3.664;2022-08-14T10:13:01;28.60;48.20
56044;DHT22;41912;51.022;3.664;2022-08-14T10:15:30;28.60;48.00
56044;DHT22;41912;51.022;3.664;2022-08-14T10:18:25;28.70;48.70
56044;DHT22;41912;51.022;3.664;2022-08-14T10:21:00;28.90;47.90
56044;DHT22;41912;51.022;3.664;2022-08-14T10:23:28;29.00;47.80
56044;DHT22;41912;51.022;3.664;2022-08-14T10:26:05;29.00;45.80
56044;DHT22;41912;51.022;3.664;2022-08-14T10:28:47;29.20;48.20
56044;DHT22;41912;51.022;3.664;2022-08-14T10:31:28;29.30;47.70
56044;DHT22;41912;51.022;3.664;2022-08-14T10:34:10;29.30;47.20
56044;DHT22;41912;51.022;3.664;2022-08-14T10:36:41;29.30;45.60
56044;DHT22;41912;51.022;3.664;2022-08-14T10:39:19;29.40;45.90
56044;DHT22;41912;51.022;3.664;2022-08-14T10:41:47;29.40;46.10
56044;DHT22;41912;51.022;3.664;2022-08-14T10:44:15;29.50;44.70
56044;DHT22;41912;51.022;3.664;2022-08-14T10:46:53;29.60;45.90
56044;DHT22;41912;51.022;3.664;2022-08-14T10:49:24;29.60;45.70
56044;DHT22;41912;51.022;3.664;2022-08-14T10:52:10;29.70;44.40
56044;DHT22;41912;51.022;3.664;2022-08-14T10:54:46;29.80;45.70
56044;DHT22;41912;51.022;3.664;2022-08-14T10:57:27;29.80;44.00
56044;DHT22;41912;51.022;3.664;2022-08-14T10:59:55;29.80;42.20
56044;DHT22;41912;51.022;3.664;2022-08-14T11:02:31;29.80;42.30
56044;DHT22;41912;51.022;3.664;2022-08-14T11:07:30;29.90;44.40
56044;DHT22;41912;51.022;3.664;2022-08-14T11:10:01;30.00;43.00
56044;DHT22;41912;51.022;3.664;2022-08-14T11:12:42;30.10;40.60
56044;DHT22;41912;51.022;3.664;2022-08-14T11:15:30;30.30;40.30
56044;DHT22;41912;51.022;3.664;2022-08-14T11:17:57;30.40;41.60
56044;DHT22;41912;51.022;3.664;2022-08-14T11:20:25;30.50;40.90
56044;DHT22;41912;51.022;3.664;2022-08-14T11:22:55;30.50;39.80
56044;DHT22;41912;51.022;3.664;2022-08-14T11:25:26;30.50;40.70
56044;DHT22;41912;51.022;3.664;2022-08-14T11:27:56;30.50;38.60
56044;DHT22;41912;51.022;3.664;2022-08-14T11:30:24;30.50;38.90
56044;DHT22;41912;51.022;3.664;2022-08-14T11:32:51;30.50;39.00
56044;DHT22;41912;51.022;3.664;2022-08-14T11:35:21;30.50;38.40
56044;DHT22;41912;51.022;3.664;2022-08-14T11:37:52;30.50;39.70
56044;DHT22;41912;51.022;3.664;2022-08-14T11:40:21;30.50;38.70
56044;DHT22;41912;51.022;3.664;2022-08-14T11:42:49;30.50;39.30
56044;DHT22;41912;51.022;3.664;2022-08-14T11:45:21;30.50;40.00
56044;DHT22;41912;51.022;3.664;2022-08-14T11:47:47;30.50;39.50
56044;DHT22;41912;51.022;3.664;2022-08-14T11:50:19;30.50;39.60
56044;DHT22;41912;51.022;3.664;2022-08-14T11:52:45;30.50;38.60
56044;DHT22;41912;51.022;3.664;2022-08-14T11:55:12;30.50;39.20
56044;DHT22;41912;51.022;3.664;2022-08-14T11:57:40;30.60;38.00
56044;DHT22;41912;51.022;3.664;2022-08-14T12:00:09;30.60;39.00
56044;DHT22;41912;51.022;3.664;2022-08-14T12:02:37;30.70;39.10
56044;DHT22;41912;51.022;3.664;2022-08-14T12:05:13;30.70;39.80
56044;DHT22;41912;51.022;3.664;2022-08-14T12:07:48;30.80;39.20
56044;DHT22;41912;51.022;3.664;2022-08-14T12:10:17;30.90;39.60
56044;DHT22;41912;51.022;3.664;2022-08-14T12:12:44;30.90;39.80
56044;DHT22;41912;51.022;3.664;2022-08-14T12:15:10;31.00;39.40
56044;DHT22;41912;51.022;3.664;2022-08-14T12:17:44;31.10;39.70
56044;DHT22;41912;51.022;3.664;2022-08-14T12:20:13;31.20;40.90
56044;DHT22;41912;51.022;3.664;2022-08-14T12:22:44;31.30;38.80
56044;DHT22;41912;51.022;3.664;2022-08-14T12:25:28;31.40;38.30
56044;DHT22;41912;51.022;3.664;2022-08-14T12:27:55;31.40;38.50
56044;DHT22;41912;51.022;3.664;2022-08-14T12:30:29;31.40;39.50
56044;DHT22;41912;51.022;3.664;2022-08-14T12:32:58;31.60;38.90
56044;DHT22;41912;51.022;3.664;2022-08-14T12:35:41;31.70;38.90
56044;DHT22;41912;51.022;3.664;2022-08-14T12:38:08;31.80;39.90
56044;DHT22;41912;51.022;3.664;2022-08-14T12:40:45;31.80;37.40
56044;DHT22;41912;51.022;3.664;2022-08-14T12:43:11;31.90;37.50
56044;DHT22;41912;51.022;3.664;2022-08-14T12:45:37;32.00;37.90
56044;DHT22;41912;51.022;3.664;2022-08-14T12:48:04;32.10;37.20
56044;DHT22;41912;51.022;3.664;2022-08-14T12:50:35;32.10;35.20
56044;DHT22;41912;51.022;3.664;2022-08-14T12:53:01;32.20;38.00
56044;DHT22;41912;51.022;3.664;2022-08-14T12:55:26;32.20;37.00
56044;DHT22;41912;51.022;3.664;2022-08-14T12:57:52;32.30;36.60
56044;DHT22;41912;51.022;3.664;2022-08-14T13:00:22;32.30;37.00
56044;DHT22;41912;51.022;3.664;2022-08-14T13:02:49;32.40;35.70
56044;DHT22;41912;51.022;3.664;2022-08-14T13:05:17;32.40;36.00
56044;DHT22;41912;51.022;3.664;2022-08-14T13:07:46;32.40;37.40
56044;DHT22;41912;51.022;3.664;2022-08-14T13:10:13;32.50;34.60
56044;DHT22;41912;51.022;3.664;2022-08-14T13:12:40;32.40;33.40
56044;DHT22;41912;51.022;3.664;2022-08-14T13:15:09;32.40;31.60
56044;DHT22;41912;51.022;3.664;2022-08-14T13:17:42;32.50;33.80
56044;DHT22;41912;51.022;3.664;2022-08-14T13:20:10;32.60;38.00
56044;DHT22;41912;51.022;3.664;2022-08-14T13:22:38;32.60;35.70
56044;DHT22;41912;51.022;3.664;2022-08-14T13:25:06;32.70;33.80
56044;DHT22;41912;51.022;3.664;2022-08-14T13:27:32;32.80;33.70
56044;DHT22;41912;51.022;3.664;2022-08-14T13:30:00;32.80;34.10
56044;DHT22;41912;51.022;3.664;2022-08-14T13:32:28;32.80;33.40
56044;DHT22;41912;51.022;3.664;2022-08-14T13:34:54;32.80;34.40
56044;DHT22;41912;51.022;3.664;2022-08-14T13:37:19;32.90;32.80
56044;DHT22;41912;51.022;3.664;2022-08-14T13:39:47;32.90;32.40
56044;DHT22;41912;51.022;3.664;2022-08-14T13:42:17;32.80;33.30
56044;DHT22;41912;51.022;3.664;2022-08-14T13:44:47;32.90;35.40
56044;DHT22;41912;51.022;3.664;2022-08-14T13:47:15;32.90;34.90
56044;DHT22;41912;51.022;3.664;2022-08-14T13:49:45;33.00;34.50
56044;DHT22;41912;51.022;3.664;2022-08-14T13:52:11;33.00;33.00
56044;DHT22;41912;51.022;3.664;2022-08-14T13:54:38;33.10;33.90
56044;DHT22;41912;51.022;3.664;2022-08-14T13:57:10;33.00;34.10
56044;DHT22;41912;51.022;3.664;2022-08-14T13:59:37;33.00;36.10
56044;DHT22;41912;51.022;3.664;2022-08-14T14:02:05;33.10;35.10
56044;DHT22;41912;51.022;3.664;2022-08-14T14:04:32;33.00;34.70
56044;DHT22;41912;51.022;3.664;2022-08-14T14:07:03;33.00;34.50
56044;DHT22;41912;51.022;3.664;2022-08-14T14:09:30;33.10;34.30
56044;DHT22;41912;51.022;3.664;2022-08-14T14:11:58;33.00;33.90
56044;DHT22;41912;51.022;3.664;2022-08-14T14:14:24;33.10;35.10
56044;DHT22;41912;51.022;3.664;2022-08-14T14:16:51;33.00;32.60
56044;DHT22;41912;51.022;3.664;2022-08-14T14:19:20;33.00;34.70
56044;DHT22;41912;51.022;3.664;2022-08-14T14:21:49;33.10;35.50
56044;DHT22;41912;51.022;3.664;2022-08-14T14:24:15;33.10;36.10
56044;DHT22;41912;51.022;3.664;2022-08-14T14:26:45;33.10;35.00
56044;DHT22;41912;51.022;3.664;2022-08-14T14:29:11;33.20;35.10
56044;DHT22;41912;51.022;3.664;2022-08-14T14:31:39;33.20;35.20
56044;DHT22;41912;51.022;3.664;2022-08-14T14:34:06;33.10;37.20
56044;DHT22;41912;51.022;3.664;2022-08-14T14:36:34;33.10;35.10
56044;DHT22;41912;51.022;3.664;2022-08-14T14:39:03;33.10;33.20
56044;DHT22;41912;51.022;3.664;2022-08-14T14:41:31;33.10;34.20
56044;DHT22;41912;51.022;3.664;2022-08-14T14:43:58;33.10;36.00
56044;DHT22;41912;51.022;3.664;2022-08-14T14:46:25;33.00;36.40
56044;DHT22;41912;51.022;3.664;2022-08-14T14:48:59;33.00;34.40
56044;DHT22;41912;51.022;3.664;2022-08-14T14:51:25;33.00;36.40
56044;DHT22;41912;51.022;3.664;2022-08-14T14:53:51;32.90;35.80
56044;DHT22;41912;51.022;3.664;2022-08-14T14:56:19;32.90;38.10
56044;DHT22;41912;51.022;3.664;2022-08-14T14:58:44;32.90;37.30
56044;DHT22;41912;51.022;3.664;2022-08-14T15:01:11;32.90;38.50
56044;DHT22;41912;51.022;3.664;2022-08-14T15:03:39;32.90;38.70
56044;DHT22;41912;51.022;3.664;2022-08-14T15:06:07;32.90;39.10
56044;DHT22;41912;51.022;3.664;2022-08-14T15:08:33;32.90;40.60
56044;DHT22;41912;51.022;3.664;2022-08-14T15:10:59;32.80;37.60
56044;DHT22;41912;51.022;3.664;2022-08-14T15:13:26;32.80;37.20
56044;DHT22;41912;51.022;3.664;2022-08-14T15:15:52;32.90;37.00
56044;DHT22;41912;51.022;3.664;2022-08-14T15:18:20;32.80;36.90
56044;DHT22;41912;51.022;3.664;2022-08-14T15:20:47;32.80;37.10
56044;DHT22;41912;51.022;3.664;2022-08-14T15:23:13;32.80;38.20
56044;DHT22;41912;51.022;3.664;2022-08-14T15:25:41;32.80;35.50
56044;DHT22;41912;51.022;3.664;2022-08-14T15:28:10;32.80;35.60
56044;DHT22;41912;51.022;3.664;2022-08-14T15:30:42;32.80;37.20
56044;DHT22;41912;51.022;3.664;2022-08-14T15:33:09;32.80;37.20
56044;DHT22;41912;51.022;3.664;2022-08-14T15:35:35;32.80;36.60
56044;DHT22;41912;51.022;3.664;2022-08-14T15:38:02;32.80;37.30
56044;DHT22;41912;51.022;3.664;2022-08-14T15:40:36;32.80;37.00
56044;DHT22;41912;51.022;3.664;2022-08-14T15:43:03;32.80;37.40
56044;DHT22;41912;51.022;3.664;2022-08-14T15:45:29;32.80;36.90
56044;DHT22;41912;51.022;3.664;2022-08-14T15:47:56;32.70;37.40
56044;DHT22;41912;51.022;3.664;2022-08-14T15:50:21;32.70;38.00
56044;DHT22;41912;51.022;3.664;2022-08-14T15:52:50;32.70;35.70
56044;DHT22;41912;51.022;3.664;2022-08-14T15:55:15;32.50;36.70